sensor_id;sensor_type;location;lat;lon;timestamp;pressure;altitude;pressure_sealevel;temperature;humidity
59873;BME280;50750;51.636;4.948;2023-02-10T00:01:20;103736.79;;;9.33;59.57
59873;BME280;50750;51.636;4.948;2023-02-10T00:03:47;103740.80;;;9.33;59.51
59873;BME280;50750;51.636;4.948;2023-02-10T00:06:14;103737.98;;;9.33;59.54
59873;BME280;50750;51.636;4.948;2023-02-10T00:08:41;103733.28;;;9.33;59.56
59873;BME280;50750;51.636;4.948;2023-02-10T00:11:09;103737.29;;;9.33;59.53
59873;BME280;50750;51.636;4.948;2023-02-10T00:13:37;103735.73;;;9.33;59.54
59873;BME280;50750;51.636;4.948;2023-02-10T00:16:05;103737.64;;;9.33;59.58
59873;BME280;50750;51.636;4.948;2023-02-10T00:18:32;103737.11;;;9.33;59.45
59873;BME280;50750;51.636;4.948;2023-02-10T00:21:13;103732.39;;;9.32;59.49
59873;BME280;50750;51.636;4.948;2023-02-10T00:23:40;103733.23;;;9.32;59.58
59873;BME280;50750;51.636;4.948;2023-02-10T00:26:07;103736.23;;;9.32;59.51
59873;BME280;50750;51.636;4.948;2023-02-10T00:28:34;103740.06;;;9.32;59.53
59873;BME280;50750;51.636;4.948;2023-02-10T00:31:12;103742.52;;;9.32;59.55
59873;BME280;50750;51.636;4.948;2023-02-10T00:33:39;103743.56;;;9.32;59.49
59873;BME280;50750;51.636;4.948;2023-02-10T00:36:08;103747.75;;;9.32;59.41
59873;BME280;50750;51.636;4.948;2023-02-10T00:38:34;103744.05;;;9.31;59.42
59873;BME280;50750;51.636;4.948;2023-02-10T00:41:05;103741.63;;;9.31;59.42
59873;BME280;50750;51.636;4.948;2023-02-10T00:43:31;103737.60;;;9.31;59.55
59873;BME280;50750;51.636;4.948;2023-02-10T00:45:57;103737.08;;;9.31;59.46
59873;BME280;50750;51.636;4.948;2023-02-10T00:48:23;103737.42;;;9.30;59.39
59873;BME280;50750;51.636;4.948;2023-02-10T00:50:49;103736.02;;;9.30;59.50
59873;BME280;50750;51.636;4.948;2023-02-10T00:53:15;103738.82;;;9.31;59.36
59873;BME280;50750;51.636;4.948;2023-02-10T00:55:41;103740.39;;;9.30;59.37
59873;BME280;50750;51.636;4.948;2023-02-10T00:58:07;103739.52;;;9.30;59.37
59873;BME280;50750;51.636;4.948;2023-02-10T01:00:33;103740.73;;;9.30;59.47
59873;BME280;50750;51.636;4.948;2023-02-10T01:02:58;103745.64;;;9.30;59.41
59873;BME280;50750;51.636;4.948;2023-02-10T01:05:24;103751.39;;;9.29;59.41
59873;BME280;50750;51.636;4.948;2023-02-10T01:07:50;103756.63;;;9.29;59.41
59873;BME280;50750;51.636;4.948;2023-02-10T01:10:19;103758.36;;;9.29;59.41
59873;BME280;50750;51.636;4.948;2023-02-10T01:12:45;103760.47;;;9.29;59.42
59873;BME280;50750;51.636;4.948;2023-02-10T01:15:11;103763.60;;;9.28;59.35
59873;BME280;50750;51.636;4.948;2023-02-10T01:17:37;103763.08;;;9.28;59.41
59873;BME280;50750;51.636;4.948;2023-02-10T01:20:04;103761.50;;;9.28;59.33
59873;BME280;50750;51.636;4.948;2023-02-10T01:22:34;103761.14;;;9.27;59.39
59873;BME280;50750;51.636;4.948;2023-02-10T01:25:02;103761.31;;;9.27;59.39
59873;BME280;50750;51.636;4.948;2023-02-10T01:27:28;103760.62;;;9.27;59.46
59873;BME280;50750;51.636;4.948;2023-02-10T01:29:54;103755.73;;;9.27;59.40
59873;BME280;50750;51.636;4.948;2023-02-10T01:32:19;103754.30;;;9.27;59.36
59873;BME280;50750;51.636;4.948;2023-02-10T01:34:45;103753.62;;;9.27;59.31
59873;BME280;50750;51.636;4.948;2023-02-10T01:37:11;103749.59;;;9.27;59.35
59873;BME280;50750;51.636;4.948;2023-02-10T01:39:37;103747.13;;;9.26;59.30
59873;BME280;50750;51.636;4.948;2023-02-10T01:42:03;103754.98;;;9.26;59.37
59873;BME280;50750;51.636;4.948;2023-02-10T01:46:56;103758.83;;;9.26;59.25
59873;BME280;50750;51.636;4.948;2023-02-10T01:49:28;103759.87;;;9.25;59.30
59873;BME280;50750;51.636;4.948;2023-02-10T01:52:02;103755.49;;;9.25;59.34
59873;BME280;50750;51.636;4.948;2023-02-10T01:54:39;103755.14;;;9.25;59.30
59873;BME280;50750;51.636;4.948;2023-02-10T01:57:07;103754.80;;;9.25;59.25
59873;BME280;50750;51.636;4.948;2023-02-10T01:59:35;103751.45;;;9.25;59.24
59873;BME280;50750;51.636;4.948;2023-02-10T02:02:02;103751.11;;;9.24;59.27
59873;BME280;50750;51.636;4.948;2023-02-10T02:04:46;103754.06;;;9.24;59.29
59873;BME280;50750;51.636;4.948;2023-02-10T02:07:15;103751.63;;;9.24;59.18
59873;BME280;50750;51.636;4.948;2023-02-10T02:09:41;103756.15;;;9.23;59.22
59873;BME280;50750;51.636;4.948;2023-02-10T02:14:41;103756.14;;;9.23;59.25
59873;BME280;50750;51.636;4.948;2023-02-10T02:23:40;103754.73;;;9.22;59.26
59873;BME280;50750;51.636;4.948;2023-02-10T02:29:12;103764.48;;;9.20;59.20
59873;BME280;50750;51.636;4.948;2023-02-10T02:37:17;103773.22;;;9.20;59.31
59873;BME280;50750;51.636;4.948;2023-02-10T02:39:48;103770.94;;;9.20;59.23
59873;BME280;50750;51.636;4.948;2023-02-10T02:42:25;103764.47;;;9.20;59.27
59873;BME280;50750;51.636;4.948;2023-02-10T02:45:14;103757.82;;;9.20;59.17
59873;BME280;50750;51.636;4.948;2023-02-10T03:01:03;103770.36;;;9.17;59.32
59873;BME280;50750;51.636;4.948;2023-02-10T03:03:32;103773.66;;;9.17;59.20
59873;BME280;50750;51.636;4.948;2023-02-10T03:06:00;103774.53;;;9.16;59.23
59873;BME280;50750;51.636;4.948;2023-02-10T03:08:28;103779.61;;;9.17;59.34
59873;BME280;50750;51.636;4.948;2023-02-10T03:10:56;103782.06;;;9.17;59.37
59873;BME280;50750;51.636;4.948;2023-02-10T03:13:22;103782.75;;;9.16;59.32
59873;BME280;50750;51.636;4.948;2023-02-10T03:15:48;103789.05;;;9.16;59.29
59873;BME280;50750;51.636;4.948;2023-02-10T03:18:15;103795.69;;;9.16;59.35
59873;BME280;50750;51.636;4.948;2023-02-10T03:20:41;103792.20;;;9.17;59.25
59873;BME280;50750;51.636;4.948;2023-02-10T03:23:07;103789.74;;;9.17;59.29
59873;BME280;50750;51.636;4.948;2023-02-10T03:25:33;103787.65;;;9.16;59.41
59873;BME280;50750;51.636;4.948;2023-02-10T03:27:59;103785.36;;;9.16;59.38
59873;BME280;50750;51.636;4.948;2023-02-10T03:30:25;103783.27;;;9.16;59.30
59873;BME280;50750;51.636;4.948;2023-02-10T03:32:51;103788.34;;;9.17;59.35
59873;BME280;50750;51.636;4.948;2023-02-10T03:35:20;103787.99;;;9.16;59.30
59873;BME280;50750;51.636;4.948;2023-02-10T03:37:46;103787.13;;;9.16;59.48
59873;BME280;50750;51.636;4.948;2023-02-10T03:40:12;103786.41;;;9.16;59.31
59873;BME280;50750;51.636;4.948;2023-02-10T03:42:38;103784.66;;;9.16;59.51
59873;BME280;50750;51.636;4.948;2023-02-10T03:45:04;103786.92;;;9.16;59.44
59873;BME280;50750;51.636;4.948;2023-02-10T03:47:30;103793.54;;;9.15;59.42
59873;BME280;50750;51.636;4.948;2023-02-10T03:49:56;103794.25;;;9.16;59.39
59873;BME280;50750;51.636;4.948;2023-02-10T03:52:22;103795.48;;;9.16;59.23
59873;BME280;50750;51.636;4.948;2023-02-10T03:54:48;103789.88;;;9.15;59.42
59873;BME280;50750;51.636;4.948;2023-02-10T03:57:13;103787.77;;;9.14;59.34
59873;BME280;50750;51.636;4.948;2023-02-10T03:59:39;103787.42;;;9.15;59.32
59873;BME280;50750;51.636;4.948;2023-02-10T04:02:05;103787.42;;;9.14;59.23
59873;BME280;50750;51.636;4.948;2023-02-10T04:04:31;103791.62;;;9.14;59.30
59873;BME280;50750;51.636;4.948;2023-02-10T04:06:57;103794.58;;;9.14;59.40
59873;BME280;50750;51.636;4.948;2023-02-10T04:09:23;103793.89;;;9.14;59.41
59873;BME280;50750;51.636;4.948;2023-02-10T04:11:49;103796.67;;;9.14;59.33
59873;BME280;50750;51.636;4.948;2023-02-10T04:14:15;103798.75;;;9.13;59.41
59873;BME280;50750;51.636;4.948;2023-02-10T04:16:41;103797.36;;;9.13;59.39
59873;BME280;50750;51.636;4.948;2023-02-10T04:19:07;103790.52;;;9.13;59.34
59873;BME280;50750;51.636;4.948;2023-02-10T04:21:33;103787.02;;;9.13;59.37
59873;BME280;50750;51.636;4.948;2023-02-10T04:23:58;103787.03;;;9.13;59.31
59873;BME280;50750;51.636;4.948;2023-02-10T04:26:25;103785.80;;;9.13;59.46
59873;BME280;50750;51.636;4.948;2023-02-10T04:28:51;103789.98;;;9.12;59.39
59873;BME280;50750;51.636;4.948;2023-02-10T04:31:17;103791.21;;;9.12;59.41
59873;BME280;50750;51.636;4.948;2023-02-10T04:33:43;103798.20;;;9.12;59.39
59873;BME280;50750;51.636;4.948;2023-02-10T04:36:09;103794.52;;;9.12;59.39
59873;BME280;50750;51.636;4.948;2023-02-10T04:38:35;103799.95;;;9.12;59.37
59873;BME280;50750;51.636;4.948;2023-02-10T04:41:01;103797.66;;;9.11;59.45
59873;BME280;50750;51.636;4.948;2023-02-10T04:43:28;103801.66;;;9.11;59.40
59873;BME280;50750;51.636;4.948;2023-02-10T04:45:54;103801.31;;;9.11;59.38
59873;BME280;50750;51.636;4.948;2023-02-10T04:48:20;103803.92;;;9.10;59.37
59873;BME280;50750;51.636;4.948;2023-02-10T04:50:46;103802.52;;;9.10;59.35
59873;BME280;50750;51.636;4.948;2023-02-10T04:53:12;103806.54;;;9.10;59.27
59873;BME280;50750;51.636;4.948;2023-02-10T04:55:38;103805.14;;;9.10;59.29
59873;BME280;50750;51.636;4.948;2023-02-10T04:58:04;103800.23;;;9.09;59.30
59873;BME280;50750;51.636;4.948;2023-02-10T05:00:30;103802.69;;;9.09;59.35
59873;BME280;50750;51.636;4.948;2023-02-10T05:02:56;103801.46;;;9.09;59.34
59873;BME280;50750;51.636;4.948;2023-02-10T05:05:22;103800.41;;;9.09;59.29
59873;BME280;50750;51.636;4.948;2023-02-10T05:07:51;103797.06;;;9.08;59.27
59873;BME280;50750;51.636;4.948;2023-02-10T05:10:17;103798.66;;;9.09;59.30
59873;BME280;50750;51.636;4.948;2023-02-10T05:12:43;103797.41;;;9.08;59.37
59873;BME280;50750;51.636;4.948;2023-02-10T05:15:09;103802.81;;;9.07;59.29
59873;BME280;50750;51.636;4.948;2023-02-10T05:17:39;103802.66;;;9.08;59.34
59873;BME280;50750;51.636;4.948;2023-02-10T05:20:08;103797.21;;;9.07;59.28
59873;BME280;50750;51.636;4.948;2023-02-10T05:22:35;103797.04;;;9.07;59.28
59873;BME280;50750;51.636;4.948;2023-02-10T05:25:02;103794.23;;;9.07;59.28
59873;BME280;50750;51.636;4.948;2023-02-10T05:27:28;103794.77;;;9.06;59.30
59873;BME280;50750;51.636;4.948;2023-02-10T05:29:54;103800.54;;;9.07;59.26
59873;BME280;50750;51.636;4.948;2023-02-10T05:32:19;103798.27;;;9.07;59.32
59873;BME280;50750;51.636;4.948;2023-02-10T05:34:45;103800.00;;;9.06;59.32
59873;BME280;50750;51.636;4.948;2023-02-10T05:37:11;103798.60;;;9.06;59.36
59873;BME280;50750;51.636;4.948;2023-02-10T05:39:37;103800.88;;;9.06;59.22
59873;BME280;50750;51.636;4.948;2023-02-10T05:42:03;103800.86;;;9.05;59.33
59873;BME280;50750;51.636;4.948;2023-02-10T05:44:29;103804.35;;;9.05;59.29
59873;BME280;50750;51.636;4.948;2023-02-10T05:46:55;103806.11;;;9.06;59.32
59873;BME280;50750;51.636;4.948;2023-02-10T05:49:21;103810.48;;;9.05;59.27
59873;BME280;50750;51.636;4.948;2023-02-10T05:51:47;103814.13;;;9.05;59.31
59873;BME280;50750;51.636;4.948;2023-02-10T05:54:13;103812.73;;;9.05;59.34
59873;BME280;50750;51.636;4.948;2023-02-10T05:56:39;103815.53;;;9.05;59.30
59873;BME280;50750;51.636;4.948;2023-02-10T05:59:06;103813.77;;;9.05;59.38
59873;BME280;50750;51.636;4.948;2023-02-10T06:01:32;103815.34;;;9.04;59.27
59873;BME280;50750;51.636;4.948;2023-02-10T06:03:58;103820.23;;;9.04;59.28
59873;BME280;50750;51.636;4.948;2023-02-10T06:06:24;103827.75;;;9.04;59.28
59873;BME280;50750;51.636;4.948;2023-02-10T06:08:50;103826.35;;;9.04;59.33
59873;BME280;50750;51.636;4.948;2023-02-10T06:11:16;103820.75;;;9.04;59.30
59873;BME280;50750;51.636;4.948;2023-02-10T06:13:42;103811.48;;;9.04;59.34
59873;BME280;50750;51.636;4.948;2023-02-10T06:16:08;103810.09;;;9.04;59.33
59873;BME280;50750;51.636;4.948;2023-02-10T06:18:34;103809.02;;;9.03;59.27
59873;BME280;50750;51.636;4.948;2023-02-10T06:21:00;103812.00;;;9.03;59.27
59873;BME280;50750;51.636;4.948;2023-02-10T06:23:26;103806.76;;;9.03;59.25
59873;BME280;50750;51.636;4.948;2023-02-10T06:25:52;103806.21;;;9.03;59.26
59873;BME280;50750;51.636;4.948;2023-02-10T06:28:24;103806.56;;;9.03;59.24
59873;BME280;50750;51.636;4.948;2023-02-10T06:30:50;103807.08;;;9.03;59.29
59873;BME280;50750;51.636;4.948;2023-02-10T06:33:16;103803.42;;;9.03;59.31
59873;BME280;50750;51.636;4.948;2023-02-10T06:35:43;103805.70;;;9.03;59.19
59873;BME280;50750;51.636;4.948;2023-02-10T06:38:09;103806.92;;;9.03;59.32
59873;BME280;50750;51.636;4.948;2023-02-10T06:40:35;103806.73;;;9.03;59.23
59873;BME280;50750;51.636;4.948;2023-02-10T06:43:01;103814.41;;;9.02;59.19
59873;BME280;50750;51.636;4.948;2023-02-10T06:45:28;103819.33;;;9.03;59.21
59873;BME280;50750;51.636;4.948;2023-02-10T06:47:54;103822.98;;;9.02;59.28
59873;BME280;50750;51.636;4.948;2023-02-10T06:50:21;103832.42;;;9.02;59.26
59873;BME280;50750;51.636;4.948;2023-02-10T06:52:47;103839.08;;;9.03;59.27
59873;BME280;50750;51.636;4.948;2023-02-10T06:55:15;103838.36;;;9.02;59.22
59873;BME280;50750;51.636;4.948;2023-02-10T06:57:41;103840.45;;;9.02;59.36
59873;BME280;50750;51.636;4.948;2023-02-10T07:00:10;103844.11;;;9.02;59.23
59873;BME280;50750;51.636;4.948;2023-02-10T07:02:36;103843.76;;;9.02;59.22
59873;BME280;50750;51.636;4.948;2023-02-10T07:05:05;103841.48;;;9.01;59.31
59873;BME280;50750;51.636;4.948;2023-02-10T07:07:34;103840.61;;;9.01;59.28
59873;BME280;50750;51.636;4.948;2023-02-10T07:10:00;103840.08;;;9.01;59.21
59873;BME280;50750;51.636;4.948;2023-02-10T07:12:26;103843.58;;;9.01;59.13
59873;BME280;50750;51.636;4.948;2023-02-10T07:14:52;103847.77;;;9.01;59.18
59873;BME280;50750;51.636;4.948;2023-02-10T07:17:19;103851.77;;;9.00;59.19
59873;BME280;50750;51.636;4.948;2023-02-10T07:19:45;103854.94;;;9.00;59.18
59873;BME280;50750;51.636;4.948;2023-02-10T07:22:11;103858.23;;;9.00;59.24
59873;BME280;50750;51.636;4.948;2023-02-10T07:24:37;103862.78;;;9.00;59.24
59873;BME280;50750;51.636;4.948;2023-02-10T07:27:03;103864.02;;;9.00;59.18
59873;BME280;50750;51.636;4.948;2023-02-10T07:29:30;103865.02;;;8.99;59.23
59873;BME280;50750;51.636;4.948;2023-02-10T07:31:56;103864.84;;;8.99;59.25
59873;BME280;50750;51.636;4.948;2023-02-10T07:34:25;103863.63;;;8.99;59.20
59873;BME280;50750;51.636;4.948;2023-02-10T07:36:52;103853.13;;;8.98;59.12
59873;BME280;50750;51.636;4.948;2023-02-10T07:39:21;103851.20;;;8.98;59.12
59873;BME280;50750;51.636;4.948;2023-02-10T07:41:48;103850.85;;;8.98;59.15
59873;BME280;50750;51.636;4.948;2023-02-10T07:44:14;103852.23;;;8.98;59.22
59873;BME280;50750;51.636;4.948;2023-02-10T07:46:41;103855.91;;;8.97;59.19
59873;BME280;50750;51.636;4.948;2023-02-10T07:49:07;103857.98;;;8.97;59.26
59873;BME280;50750;51.636;4.948;2023-02-10T07:51:33;103857.63;;;8.97;59.11
59873;BME280;50750;51.636;4.948;2023-02-10T07:53:59;103864.77;;;8.96;59.21
59873;BME280;50750;51.636;4.948;2023-02-10T07:56:25;103870.37;;;8.96;59.23
59873;BME280;50750;51.636;4.948;2023-02-10T07:58:51;103871.76;;;8.96;59.30
59873;BME280;50750;51.636;4.948;2023-02-10T08:01:17;103874.20;;;8.96;59.30
59873;BME280;50750;51.636;4.948;2023-02-10T08:03:43;103875.96;;;8.96;59.29
59873;BME280;50750;51.636;4.948;2023-02-10T08:06:09;103879.80;;;8.96;59.30
59873;BME280;50750;51.636;4.948;2023-02-10T08:08:35;103878.23;;;8.96;59.34
59873;BME280;50750;51.636;4.948;2023-02-10T08:11:05;103882.77;;;8.96;59.37
59873;BME280;50750;51.636;4.948;2023-02-10T08:13:32;103883.11;;;8.96;59.34
59873;BME280;50750;51.636;4.948;2023-02-10T08:15:58;103885.56;;;8.95;59.35
59873;BME280;50750;51.636;4.948;2023-02-10T08:18:24;103881.89;;;8.95;59.32
59873;BME280;50750;51.636;4.948;2023-02-10T08:20:50;103888.71;;;8.96;59.41
59873;BME280;50750;51.636;4.948;2023-02-10T08:23:17;103897.27;;;8.95;59.33
59873;BME280;50750;51.636;4.948;2023-02-10T08:25:43;103897.45;;;8.95;59.45
59873;BME280;50750;51.636;4.948;2023-02-10T08:28:10;103895.52;;;8.95;59.40
59873;BME280;50750;51.636;4.948;2023-02-10T08:30:36;103893.07;;;8.95;59.30
59873;BME280;50750;51.636;4.948;2023-02-10T08:33:02;103883.77;;;8.94;59.33
59873;BME280;50750;51.636;4.948;2023-02-10T08:35:28;103874.17;;;8.94;59.43
59873;BME280;50750;51.636;4.948;2023-02-10T08:37:54;103870.14;;;8.94;59.42
59873;BME280;50750;51.636;4.948;2023-02-10T08:40:20;103872.59;;;8.94;59.47
59873;BME280;50750;51.636;4.948;2023-02-10T08:42:46;103873.99;;;8.94;59.52
59873;BME280;50750;51.636;4.948;2023-02-10T08:45:12;103876.77;;;8.94;59.50
59873;BME280;50750;51.636;4.948;2023-02-10T08:47:38;103881.32;;;8.94;59.48
59873;BME280;50750;51.636;4.948;2023-02-10T08:50:04;103879.58;;;8.94;59.55
59873;BME280;50750;51.636;4.948;2023-02-10T08:52:30;103883.75;;;8.93;59.58
59873;BME280;50750;51.636;4.948;2023-02-10T08:55:00;103886.20;;;8.93;59.51
59873;BME280;50750;51.636;4.948;2023-02-10T08:57:27;103879.57;;;8.94;59.49
59873;BME280;50750;51.636;4.948;2023-02-10T08:59:53;103879.91;;;8.93;59.52
59873;BME280;50750;51.636;4.948;2023-02-10T09:02:19;103879.20;;;8.93;59.60
59873;BME280;50750;51.636;4.948;2023-02-10T09:04:45;103879.38;;;8.93;59.64
59873;BME280;50750;51.636;4.948;2023-02-10T09:07:11;103881.84;;;8.93;59.68
59873;BME280;50750;51.636;4.948;2023-02-10T09:09:39;103880.95;;;8.93;59.65
59873;BME280;50750;51.636;4.948;2023-02-10T09:12:07;103885.50;;;8.93;59.54
59873;BME280;50750;51.636;4.948;2023-02-10T09:14:37;103888.29;;;8.93;59.70
59873;BME280;50750;51.636;4.948;2023-02-10T09:17:03;103886.02;;;8.93;59.73
59873;BME280;50750;51.636;4.948;2023-02-10T09:19:29;103887.08;;;8.93;59.65
59873;BME280;50750;51.636;4.948;2023-02-10T09:21:55;103890.91;;;8.93;59.61
59873;BME280;50750;51.636;4.948;2023-02-10T09:24:22;103895.81;;;8.94;59.73
59873;BME280;50750;51.636;4.948;2023-02-10T09:26:49;103895.81;;;8.93;59.70
59873;BME280;50750;51.636;4.948;2023-02-10T09:29:15;103897.04;;;8.93;59.67
59873;BME280;50750;51.636;4.948;2023-02-10T09:31:41;103891.79;;;8.93;59.75
59873;BME280;50750;51.636;4.948;2023-02-10T09:34:08;103882.35;;;8.93;59.76
59873;BME280;50750;51.636;4.948;2023-02-10T09:36:34;103880.77;;;8.93;59.80
59873;BME280;50750;51.636;4.948;2023-02-10T09:39:00;103883.04;;;8.93;59.83
59873;BME280;50750;51.636;4.948;2023-02-10T09:41:51;103884.80;;;8.93;59.80
59873;BME280;50750;51.636;4.948;2023-02-10T09:44:31;103895.81;;;8.93;59.76
59873;BME280;50750;51.636;4.948;2023-02-10T09:50:03;103892.31;;;8.93;59.75
59873;BME280;50750;51.636;4.948;2023-02-10T09:55:16;103902.79;;;8.92;59.83
59873;BME280;50750;51.636;4.948;2023-02-10T09:57:47;103908.73;;;8.93;59.99
59873;BME280;50750;51.636;4.948;2023-02-10T10:02:52;103921.15;;;8.93;59.91
59873;BME280;50750;51.636;4.948;2023-02-10T10:08:04;103910.32;;;8.93;59.97
59873;BME280;50750;51.636;4.948;2023-02-10T10:10:40;103909.44;;;8.93;60.03
59873;BME280;50750;51.636;4.948;2023-02-10T10:13:14;103911.89;;;8.93;59.99
59873;BME280;50750;51.636;4.948;2023-02-10T10:15:48;103915.55;;;8.93;60.10
59873;BME280;50750;51.636;4.948;2023-02-10T10:18:33;103919.95;;;8.94;60.05
59873;BME280;50750;51.636;4.948;2023-02-10T10:26:59;103910.34;;;8.94;60.13
59873;BME280;50750;51.636;4.948;2023-02-10T10:29:39;103910.53;;;8.95;60.12
59873;BME280;50750;51.636;4.948;2023-02-10T10:35:05;103903.73;;;8.95;60.19
59873;BME280;50750;51.636;4.948;2023-02-10T10:37:37;103906.52;;;8.95;60.08
59873;BME280;50750;51.636;4.948;2023-02-10T10:40:06;103903.56;;;8.96;60.19
59873;BME280;50750;51.636;4.948;2023-02-10T10:42:47;103900.95;;;8.96;60.30
59873;BME280;50750;51.636;4.948;2023-02-10T10:45:36;103891.16;;;8.96;60.31
59873;BME280;50750;51.636;4.948;2023-02-10T10:48:14;103890.29;;;8.96;60.30
59873;BME280;50750;51.636;4.948;2023-02-10T10:50:41;103888.90;;;8.97;60.33
59873;BME280;50750;51.636;4.948;2023-02-10T10:53:18;103884.00;;;8.96;60.25
59873;BME280;50750;51.636;4.948;2023-02-10T10:55:53;103882.81;;;8.97;60.38
59873;BME280;50750;51.636;4.948;2023-02-10T10:58:27;103882.62;;;8.97;60.44
59873;BME280;50750;51.636;4.948;2023-02-10T11:00:59;103885.44;;;8.98;60.45
59873;BME280;50750;51.636;4.948;2023-02-10T11:03:27;103879.14;;;8.97;60.52
59873;BME280;50750;51.636;4.948;2023-02-10T11:08:44;103883.86;;;8.97;60.52
59873;BME280;50750;51.636;4.948;2023-02-10T11:11:13;103881.08;;;8.97;60.56
59873;BME280;50750;51.636;4.948;2023-02-10T11:13:49;103878.45;;;8.97;60.55
59873;BME280;50750;51.636;4.948;2023-02-10T11:16:16;103876.20;;;8.99;60.62
59873;BME280;50750;51.636;4.948;2023-02-10T11:18:57;103869.73;;;8.99;60.58
59873;BME280;50750;51.636;4.948;2023-02-10T11:21:40;103862.23;;;8.99;60.59
59873;BME280;50750;51.636;4.948;2023-02-10T11:29:26;103861.55;;;9.00;60.66
59873;BME280;50750;51.636;4.948;2023-02-10T11:31:53;103856.30;;;9.00;60.74
59873;BME280;50750;51.636;4.948;2023-02-10T11:34:28;103856.86;;;9.00;60.77
59873;BME280;50750;51.636;4.948;2023-02-10T11:36:58;103856.48;;;9.00;60.69
59873;BME280;50750;51.636;4.948;2023-02-10T11:39:31;103850.04;;;9.01;60.81
59873;BME280;50750;51.636;4.948;2023-02-10T11:42:17;103856.52;;;9.01;60.84
59873;BME280;50750;51.636;4.948;2023-02-10T11:47:20;103835.55;;;9.01;60.82
59873;BME280;50750;51.636;4.948;2023-02-10T11:49:48;103833.80;;;9.02;60.76
59873;BME280;50750;51.636;4.948;2023-02-10T11:52:17;103833.46;;;9.02;60.94
59873;BME280;50750;51.636;4.948;2023-02-10T11:54:45;103838.71;;;9.02;60.97
59873;BME280;50750;51.636;4.948;2023-02-10T11:57:37;103835.04;;;9.02;60.78
59873;BME280;50750;51.636;4.948;2023-02-10T12:06:24;103838.98;;;9.06;60.60
59873;BME280;50750;51.636;4.948;2023-02-10T12:09:02;103838.14;;;9.07;60.60
59873;BME280;50750;51.636;4.948;2023-02-10T12:11:56;103843.77;;;9.09;60.51
59873;BME280;50750;51.636;4.948;2023-02-10T12:36:13;103820.48;;;9.15;60.58
59873;BME280;50750;51.636;4.948;2023-02-10T12:38:56;103821.52;;;9.16;60.61
59873;BME280;50750;51.636;4.948;2023-02-10T12:44:12;103808.95;;;9.16;60.70
59873;BME280;50750;51.636;4.948;2023-02-10T12:49:47;103812.12;;;9.16;60.51
59873;BME280;50750;51.636;4.948;2023-02-10T12:52:39;103806.52;;;9.17;60.48
59873;BME280;50750;51.636;4.948;2023-02-10T12:57:58;103798.15;;;9.17;60.52
59873;BME280;50750;51.636;4.948;2023-02-10T13:00:30;103794.30;;;9.17;60.72
59873;BME280;50750;51.636;4.948;2023-02-10T13:03:05;103792.38;;;9.17;60.71
59873;BME280;50750;51.636;4.948;2023-02-10T13:05:42;103801.64;;;9.17;60.77
59873;BME280;50750;51.636;4.948;2023-02-10T13:08:23;103804.80;;;9.18;60.55
59873;BME280;50750;51.636;4.948;2023-02-10T13:10:54;103802.00;;;9.18;60.60
59873;BME280;50750;51.636;4.948;2023-02-10T13:13:28;103797.98;;;9.18;60.81
59873;BME280;50750;51.636;4.948;2023-02-10T13:16:02;103796.25;;;9.18;60.87
59873;BME280;50750;51.636;4.948;2023-02-10T13:18:32;103797.16;;;9.19;60.87
59873;BME280;50750;51.636;4.948;2023-02-10T13:26:23;103800.84;;;9.20;60.92
59873;BME280;50750;51.636;4.948;2023-02-10T13:34:33;103800.84;;;9.21;60.69
59873;BME280;50750;51.636;4.948;2023-02-10T13:39:52;103800.84;;;9.21;60.78
59873;BME280;50750;51.636;4.948;2023-02-10T13:42:27;103796.16;;;9.22;60.80
59873;BME280;50750;51.636;4.948;2023-02-10T13:45:21;103793.89;;;9.22;60.76
59873;BME280;50750;51.636;4.948;2023-02-10T13:50:24;103780.44;;;9.23;60.93
59873;BME280;50750;51.636;4.948;2023-02-10T13:53:05;103774.50;;;9.23;60.93
59873;BME280;50750;51.636;4.948;2023-02-10T13:55:50;103775.20;;;9.23;60.93
59873;BME280;50750;51.636;4.948;2023-02-10T13:58:29;103775.73;;;9.23;60.84
59873;BME280;50750;51.636;4.948;2023-02-10T14:00:56;103765.09;;;9.24;60.86
59873;BME280;50750;51.636;4.948;2023-02-10T14:03:28;103760.73;;;9.25;60.83
59873;BME280;50750;51.636;4.948;2023-02-10T14:06:06;103766.34;;;9.25;60.96
59873;BME280;50750;51.636;4.948;2023-02-10T14:08:44;103761.45;;;9.25;60.99
59873;BME280;50750;51.636;4.948;2023-02-10T14:13:56;103761.98;;;9.26;60.89
59873;BME280;50750;51.636;4.948;2023-02-10T14:17:01;103756.42;;;9.27;60.78
59873;BME280;50750;51.636;4.948;2023-02-10T14:19:39;103757.83;;;9.28;61.12
59873;BME280;50750;51.636;4.948;2023-02-10T14:22:06;103749.83;;;9.29;60.96
59873;BME280;50750;51.636;4.948;2023-02-10T14:24:44;103748.80;;;9.31;60.93
59873;BME280;50750;51.636;4.948;2023-02-10T14:27:23;103748.80;;;9.32;60.91
59873;BME280;50750;51.636;4.948;2023-02-10T14:30:12;103747.77;;;9.32;60.99
59873;BME280;50750;51.636;4.948;2023-02-10T14:32:44;103740.46;;;9.34;60.95
59873;BME280;50750;51.636;4.948;2023-02-10T14:35:19;103732.23;;;9.34;60.76
59873;BME280;50750;51.636;4.948;2023-02-10T14:37:51;103734.69;;;9.34;60.85
59873;BME280;50750;51.636;4.948;2023-02-10T14:40:20;103732.95;;;9.35;60.77
59873;BME280;50750;51.636;4.948;2023-02-10T14:42:47;103735.61;;;9.36;60.76
59873;BME280;50750;51.636;4.948;2023-02-10T14:45:25;103731.77;;;9.36;60.71
59873;BME280;50750;51.636;4.948;2023-02-10T14:47:54;103731.23;;;9.36;60.72
59873;BME280;50750;51.636;4.948;2023-02-10T14:50:30;103736.31;;;9.36;60.84
59873;BME280;50750;51.636;4.948;2023-02-10T14:52:57;103735.97;;;9.36;60.83
59873;BME280;50750;51.636;4.948;2023-02-10T14:55:29;103735.27;;;9.37;60.77
59873;BME280;50750;51.636;4.948;2023-02-10T14:58:10;103734.05;;;9.37;60.71
59873;BME280;50750;51.636;4.948;2023-02-10T15:00:37;103728.62;;;9.36;60.81
59873;BME280;50750;51.636;4.948;2023-02-10T15:03:04;103732.12;;;9.37;60.94
59873;BME280;50750;51.636;4.948;2023-02-10T15:05:50;103734.57;;;9.37;60.83
59873;BME280;50750;51.636;4.948;2023-02-10T15:09:06;103730.20;;;9.37;60.83
59873;BME280;50750;51.636;4.948;2023-02-10T15:11:13;103727.23;;;9.37;60.78